createdAt,value
2024-05-09T00:00:15.512Z,102404.88
2024-05-09T00:00:49.297Z,102401.34
2024-05-09T00:01:23.129Z,102403.19
2024-05-09T00:01:37.229Z,102407.63
2024-05-09T00:01:51.059Z,102403.25
2024-05-09T00:02:05.157Z,102403.25
2024-05-09T00:02:18.988Z,102404.16
2024-05-09T00:02:35.437Z,102400.63
2024-05-09T00:02:49.079Z,102402.44
2024-05-09T00:03:07.440Z,102399.78
2024-05-09T00:03:21.486Z,102406.94
2024-05-09T00:03:35.137Z,102405.22
2024-05-09T00:03:49.072Z,102412.25
2024-05-09T00:04:03.574Z,102406.94
2024-05-09T00:04:17.236Z,102407.06
2024-05-09T00:04:30.837Z,102401.75
2024-05-09T00:04:47.173Z,102404.41
2024-05-09T00:05:01.012Z,102402.66
2024-05-09T00:05:14.967Z,102400.84
2024-05-09T00:05:29.138Z,102409.72
2024-05-09T00:05:44.132Z,102401.75
2024-05-09T00:05:58.271Z,102397.34
2024-05-09T00:06:12.026Z,102404.41
2024-05-09T00:06:25.762Z,102406.16
2024-05-09T00:06:42.072Z,102402.66
2024-05-09T00:06:55.838Z,102398.28
2024-05-09T00:07:09.597Z,102400.00
2024-05-09T00:07:23.197Z,102398.19
2024-05-09T00:07:36.800Z,102403.50
2024-05-09T00:07:50.644Z,102400.94
2024-05-09T00:08:05.207Z,102404.44
2024-05-09T00:08:19.029Z,102398.28
2024-05-09T00:08:32.952Z,102402.69
2024-05-09T00:08:49.380Z,102402.78
2024-05-09T00:09:03.459Z,102398.31
2024-05-09T00:09:17.037Z,102394.81
2024-05-09T00:09:30.604Z,102402.78
2024-05-09T00:09:44.235Z,102404.53
2024-05-09T00:09:58.093Z,102398.38
2024-05-09T00:10:18.322Z,102397.50
2024-05-09T00:10:40.631Z,102394.03
2024-05-09T00:10:57.624Z,102400.22
2024-05-09T00:11:11.508Z,102400.22
2024-05-09T00:11:25.338Z,102398.50
2024-05-09T00:11:39.173Z,102399.34
2024-05-09T00:11:53.000Z,102393.16
2024-05-09T00:12:07.000Z,102402.03
2024-05-09T00:12:23.440Z,102401.19
2024-05-09T00:12:37.260Z,102395.03
2024-05-09T00:12:50.894Z,102402.03
2024-05-09T00:13:05.524Z,102401.16
2024-05-09T00:13:19.312Z,102395.03
2024-05-09T00:13:32.998Z,102400.34
2024-05-09T00:13:46.734Z,102403.00
2024-05-09T00:14:00.439Z,102398.56
2024-05-09T00:14:16.722Z,102396.00
2024-05-09T00:14:30.546Z,102399.50
2024-05-09T00:14:44.280Z,102394.19
2024-05-09T00:14:58.061Z,102396.00
2024-05-09T00:15:11.696Z,102398.66
2024-05-09T00:15:25.537Z,102390.69
2024-05-09T00:15:39.633Z,102396.91
2024-05-09T00:15:53.379Z,102396.03
2024-05-09T00:16:11.340Z,102392.53
2024-05-09T00:16:28.021Z,102390.78
2024-05-09T00:16:41.747Z,102394.31
2024-05-09T00:16:55.753Z,102395.22
2024-05-09T00:17:09.482Z,102400.53
2024-05-09T00:17:23.340Z,102389.06
2024-05-09T00:17:37.470Z,102394.38
2024-05-09T00:17:51.447Z,102398.81
2024-05-09T00:18:08.637Z,102390.84
2024-05-09T00:18:25.292Z,102394.41
2024-05-09T00:18:39.160Z,102397.06
2024-05-09T00:18:52.967Z,102390.91
2024-05-09T00:19:06.800Z,102394.41
2024-05-09T00:19:20.654Z,102401.53
2024-05-09T00:19:34.517Z,102398.00
2024-05-09T00:19:48.486Z,102395.34
2024-05-09T00:20:11.169Z,102399.78
2024-05-09T00:20:38.114Z,102398.06
2024-05-09T00:20:54.459Z,102403.38
2024-05-09T00:21:09.513Z,102401.63
2024-05-09T00:21:26.001Z,102405.16
2024-05-09T00:21:43.250Z,102398.09
2024-05-09T00:21:57.137Z,102406.06
2024-05-09T00:22:10.951Z,102395.44
2024-05-09T00:22:24.662Z,102405.16
2024-05-09T00:22:38.317Z,102405.22
2024-05-09T00:22:52.004Z,102399.03
2024-05-09T00:23:07.469Z,102397.28
2024-05-09T00:23:21.579Z,102404.34
2024-05-09T00:23:35.416Z,102402.59
2024-05-09T00:23:52.222Z,102400.88
2024-05-09T00:24:06.310Z,102399.09
2024-05-09T00:24:19.904Z,102405.25
2024-05-09T00:24:33.635Z,102407.00
2024-05-09T00:24:47.293Z,102405.25
2024-05-09T00:25:00.919Z,102399.94
2024-05-09T00:25:14.644Z,102402.59
2024-05-09T00:25:28.276Z,102407.91
2024-05-09T00:25:46.139Z,102406.19
2024-05-09T00:26:00.447Z,102404.44
2024-05-09T00:26:17.704Z,102405.34
2024-05-09T00:26:31.627Z,102409.75
2024-05-09T00:26:45.252Z,102404.44
2024-05-09T00:26:59.197Z,102402.72
2024-05-09T00:27:13.455Z,102404.44
2024-05-09T00:27:27.162Z,102407.16
2024-05-09T00:27:44.318Z,102406.28
2024-05-09T00:27:58.004Z,102406.28
2024-05-09T00:28:12.283Z,102402.81
2024-05-09T00:28:26.123Z,102403.69
2024-05-09T00:28:39.828Z,102412.56
2024-05-09T00:28:53.456Z,102401.09
2024-05-09T00:29:07.185Z,102405.53
2024-05-09T00:29:23.872Z,102410.00
2024-05-09T00:29:37.641Z,102408.25
2024-05-09T00:29:51.261Z,102405.59
2024-05-09T00:30:07.057Z,102401.22
2024-05-09T00:30:28.000Z,102400.31
2024-05-09T00:30:46.862Z,102402.16
2024-05-09T00:31:00.452Z,102397.72
2024-05-09T00:31:17.132Z,102405.69
2024-05-09T00:31:30.733Z,102399.56
2024-05-09T00:31:44.487Z,102399.56
2024-05-09T00:31:58.195Z,102398.69
2024-05-09T00:32:12.322Z,102400.47
2024-05-09T00:32:26.227Z,102395.16
2024-05-09T00:32:40.248Z,102401.41
2024-05-09T00:32:53.954Z,102398.75
2024-05-09T00:33:11.424Z,102399.66
2024-05-09T00:33:28.550Z,102399.66
2024-05-09T00:33:42.626Z,102397.94
2024-05-09T00:33:56.724Z,102403.25
2024-05-09T00:34:10.548Z,102403.25
2024-05-09T00:34:24.547Z,102397.09
2024-05-09T00:34:38.293Z,102405.91
2024-05-09T00:34:51.927Z,102405.94
2024-05-09T00:35:06.646Z,102403.34
2024-05-09T00:35:20.322Z,102404.28
2024-05-09T00:35:34.174Z,102401.75
2024-05-09T00:35:50.689Z,102407.03
2024-05-09T00:36:04.500Z,102412.34
2024-05-09T00:36:18.199Z,102405.28
2024-05-09T00:36:31.861Z,102404.44
2024-05-09T00:36:45.506Z,102403.56
2024-05-09T00:36:59.131Z,102406.22
2024-05-09T00:37:12.738Z,102405.41
2024-05-09T00:37:26.457Z,102408.06
2024-05-09T00:37:42.706Z,102404.53
2024-05-09T00:37:56.609Z,102406.31
2024-05-09T00:38:10.876Z,102403.66
2024-05-09T00:38:25.019Z,102401.94
2024-05-09T00:38:38.771Z,102401.94
2024-05-09T00:38:52.418Z,102408.97
2024-05-09T00:39:06.028Z,102407.25
2024-05-09T00:39:19.669Z,102401.03
2024-05-09T00:39:35.902Z,102408.16
2024-05-09T00:39:49.619Z,102405.50
2024-05-09T00:40:03.595Z,102400.19
2024-05-09T00:40:26.537Z,102405.50
2024-05-09T00:40:44.746Z,102405.50
2024-05-09T00:40:58.494Z,102405.50
2024-05-09T00:41:12.242Z,102410.81
2024-05-09T00:41:26.042Z,102400.25
2024-05-09T00:41:42.330Z,102402.03
2024-05-09T00:41:56.217Z,102403.78
2024-05-09T00:42:10.295Z,102402.03
2024-05-09T00:42:23.918Z,102398.47
2024-05-09T00:42:38.729Z,102393.19
2024-05-09T00:42:52.299Z,102402.03
2024-05-09T00:43:06.288Z,102400.25
2024-05-09T00:43:20.046Z,102402.03
2024-05-09T00:43:36.327Z,102401.16
2024-05-09T00:43:50.077Z,102397.66
2024-05-09T00:44:04.661Z,102397.66
2024-05-09T00:44:18.474Z,102401.22
2024-05-09T00:44:32.290Z,102396.84
2024-05-09T00:44:46.193Z,102399.47
2024-05-09T00:44:59.809Z,102395.97
2024-05-09T00:45:13.666Z,102406.59
2024-05-09T00:45:30.070Z,102404.84
2024-05-09T00:45:44.383Z,102409.28
2024-05-09T00:45:58.592Z,102404.84
2024-05-09T00:46:13.050Z,102412.84
2024-05-09T00:46:27.138Z,102408.44
2024-05-09T00:46:41.037Z,102402.28
2024-05-09T00:46:57.949Z,102406.75
2024-05-09T00:47:11.903Z,102403.19
2024-05-09T00:47:25.860Z,102407.59
2024-05-09T00:47:40.700Z,102410.25
2024-05-09T00:47:55.041Z,102412.97
2024-05-09T00:48:15.428Z,102405.00
2024-05-09T00:48:32.303Z,102406.78
2024-05-09T00:48:48.768Z,102405.00
2024-05-09T00:49:02.753Z,102409.44
2024-05-09T00:49:16.825Z,102406.78
2024-05-09T00:49:30.903Z,102402.38
2024-05-09T00:49:45.548Z,102397.97
2024-05-09T00:49:59.604Z,102398.88
2024-05-09T00:50:19.285Z,102405.94
2024-05-09T00:50:38.728Z,102400.63
2024-05-09T00:50:56.645Z,102405.94
2024-05-09T00:51:10.893Z,102406.78
2024-05-09T00:51:24.820Z,102402.38
2024-05-09T00:51:42.888Z,102399.72
2024-05-09T00:51:57.818Z,102403.31
2024-05-09T00:52:11.630Z,102400.66
2024-05-09T00:52:28.615Z,102404.19
2024-05-09T00:52:42.458Z,102398.88
2024-05-09T00:52:56.589Z,102402.47
2024-05-09T00:53:12.283Z,102402.47
2024-05-09T00:53:26.706Z,102399.81
2024-05-09T00:53:40.816Z,102399.81
2024-05-09T00:53:57.106Z,102403.31
2024-05-09T00:54:11.054Z,102402.47
2024-05-09T00:54:26.200Z,102400.63
2024-05-09T00:54:39.967Z,102396.22
2024-05-09T00:54:54.722Z,102402.47
2024-05-09T00:55:08.947Z,102401.56
2024-05-09T00:55:24.094Z,102401.56
2024-05-09T00:55:39.835Z,102400.69
2024-05-09T00:55:55.423Z,102393.66
2024-05-09T00:56:15.365Z,102398.97
2024-05-09T00:56:29.630Z,102400.75
2024-05-09T00:56:43.569Z,102399.88
2024-05-09T00:56:57.885Z,102407.00
2024-05-09T00:57:11.541Z,102401.72
2024-05-09T00:57:26.390Z,102398.19
2024-05-09T00:57:40.155Z,102399.97
2024-05-09T00:57:56.933Z,102386.72
2024-05-09T00:58:12.949Z,102403.56
2024-05-09T00:58:30.635Z,102394.72
2024-05-09T00:58:44.841Z,102396.53
2024-05-09T00:58:58.554Z,102399.19
2024-05-09T00:59:12.633Z,102400.97
2024-05-09T00:59:29.956Z,102406.28
2024-05-09T00:59:44.243Z,102396.56
2024-05-09T00:59:58.045Z,102393.09
2024-05-09T01:00:22.112Z,102395.81
2024-05-09T01:00:41.792Z,102395.84
2024-05-09T01:00:57.126Z,102396.75
2024-05-09T01:01:12.582Z,102396.75
2024-05-09T01:01:29.840Z,102399.53
2024-05-09T01:01:45.005Z,102396.88
2024-05-09T01:02:00.501Z,102396.00
2024-05-09T01:02:15.456Z,102398.72
2024-05-09T01:02:29.276Z,102396.09
2024-05-09T01:02:43.077Z,102404.06
2024-05-09T01:02:57.276Z,102396.16
2024-05-09T01:03:14.538Z,102407.69
2024-05-09T01:03:28.640Z,102400.59
2024-05-09T01:03:46.640Z,102398.84
2024-05-09T01:04:02.504Z,102394.44
2024-05-09T01:04:16.315Z,102394.44
2024-05-09T01:04:30.014Z,102397.19
2024-05-09T01:04:44.257Z,102398.03
2024-05-09T01:04:58.018Z,102400.69
2024-05-09T01:05:11.987Z,102398.03
2024-05-09T01:05:25.818Z,102398.03
2024-05-09T01:05:40.240Z,102398.91
2024-05-09T01:05:56.926Z,102398.03
2024-05-09T01:06:10.650Z,102390.97
2024-05-09T01:06:24.470Z,102401.59
2024-05-09T01:06:38.351Z,102399.84
2024-05-09T01:06:52.100Z,102396.28
2024-05-09T01:07:05.703Z,102394.53
2024-05-09T01:07:19.380Z,102402.47
2024-05-09T01:07:35.682Z,102394.56
2024-05-09T01:07:49.480Z,102399.00
2024-05-09T01:08:03.643Z,102402.47
2024-05-09T01:08:17.492Z,102396.34
2024-05-09T01:08:31.638Z,102398.16
2024-05-09T01:08:45.447Z,102395.50
2024-05-09T01:08:59.086Z,102395.44
2024-05-09T01:09:15.360Z,102397.22
2024-05-09T01:09:28.940Z,102392.78
2024-05-09T01:09:42.556Z,102390.13
2024-05-09T01:09:56.191Z,102395.44
2024-05-09T01:10:14.322Z,102398.16
2024-05-09T01:10:35.859Z,102391.94
2024-05-09T01:10:50.344Z,102394.59
2024-05-09T01:11:06.808Z,102395.50
2024-05-09T01:11:21.261Z,102394.69
2024-05-09T01:11:38.283Z,102401.72
2024-05-09T01:11:52.076Z,102400.84
2024-05-09T01:12:06.581Z,102389.38
2024-05-09T01:12:20.829Z,102392.94
2024-05-09T01:12:34.578Z,102396.50
2024-05-09T01:12:48.266Z,102392.06
2024-05-09T01:13:04.658Z,102389.44
2024-05-09T01:13:18.513Z,102385.06
2024-05-09T01:13:32.125Z,102388.59
2024-05-09T01:13:46.463Z,102397.41
2024-05-09T01:14:00.187Z,102391.25
2024-05-09T01:14:13.940Z,102393.03
2024-05-09T01:14:27.563Z,102392.22
2024-05-09T01:14:41.336Z,102395.69
2024-05-09T01:14:54.906Z,102391.28
2024-05-09T01:15:11.454Z,102391.28
2024-05-09T01:15:25.164Z,102393.13
2024-05-09T01:15:38.830Z,102393.06
2024-05-09T01:15:54.184Z,102391.34
2024-05-09T01:16:10.993Z,102388.69
2024-05-09T01:16:24.662Z,102388.69
2024-05-09T01:16:38.567Z,102386.03
2024-05-09T01:16:55.091Z,102391.41
2024-05-09T01:17:09.032Z,102390.47
2024-05-09T01:17:22.722Z,102393.13
2024-05-09T01:17:36.987Z,102381.63
2024-05-09T01:17:51.106Z,102387.81
2024-05-09T01:18:08.059Z,102393.13
2024-05-09T01:18:24.821Z,102387.81
2024-05-09T01:18:38.690Z,102390.47
2024-05-09T01:18:52.638Z,102391.41
2024-05-09T01:19:21.389Z,102391.34
2024-05-09T01:19:36.475Z,102392.25
2024-05-09T01:19:50.727Z,102387.00
2024-05-09T01:20:06.357Z,102392.25
2024-05-09T01:20:35.907Z,102394.91
2024-05-09T01:20:54.000Z,102387.88
2024-05-09T01:21:09.648Z,102394.94
2024-05-09T01:21:25.968Z,102389.72
2024-05-09T01:21:41.770Z,102393.22
2024-05-09T01:21:55.535Z,102387.91
2024-05-09T01:22:10.042Z,102398.53
2024-05-09T01:22:26.219Z,102394.09
2024-05-09T01:22:40.346Z,102390.56
2024-05-09T01:22:55.240Z,102396.78
2024-05-09T01:23:12.420Z,102396.78
2024-05-09T01:23:26.785Z,102395.91
2024-05-09T01:23:43.807Z,102389.75
2024-05-09T01:23:57.472Z,102392.41
2024-05-09T01:24:11.223Z,102390.66
2024-05-09T01:24:25.003Z,102396.88
2024-05-09T01:24:38.765Z,102397.75
2024-05-09T01:24:52.950Z,102390.72
2024-05-09T01:25:07.517Z,102389.84
2024-05-09T01:25:21.232Z,102388.97
2024-05-09T01:25:37.706Z,102395.16
2024-05-09T01:25:51.409Z,102388.09
2024-05-09T01:26:05.459Z,102391.63
2024-05-09T01:26:19.303Z,102395.16
2024-05-09T01:26:33.089Z,102390.75
2024-05-09T01:26:46.713Z,102388.97
2024-05-09T01:27:00.664Z,102393.31
2024-05-09T01:27:14.253Z,102388.94
2024-05-09T01:27:31.071Z,102389.84
2024-05-09T01:27:44.717Z,102393.38
2024-05-09T01:27:58.326Z,102384.56
2024-05-09T01:28:12.090Z,102392.50
2024-05-09T01:28:25.782Z,102389.84
2024-05-09T01:28:39.784Z,102389.84
2024-05-09T01:28:53.577Z,102391.56
2024-05-09T01:29:10.000Z,102389.84
2024-05-09T01:29:23.746Z,102394.22
2024-05-09T01:29:37.666Z,102388.09
2024-05-09T01:29:51.368Z,102388.94
2024-05-09T01:30:09.241Z,102393.38
2024-05-09T01:30:31.290Z,102389.84
2024-05-09T01:30:47.888Z,102384.56
2024-05-09T01:31:01.956Z,102392.50
2024-05-09T01:31:18.354Z,102388.97
2024-05-09T01:31:32.027Z,102392.50
2024-05-09T01:31:46.915Z,102383.66
2024-05-09T01:32:00.874Z,102387.22
2024-05-09T01:32:14.696Z,102398.72
2024-05-09T01:32:28.732Z,102398.72
2024-05-09T01:32:42.707Z,102395.19
2024-05-09T01:32:56.742Z,102391.69
2024-05-09T01:33:12.108Z,102388.09
2024-05-09T01:33:29.341Z,102400.50
2024-05-09T01:33:43.743Z,102391.69
2024-05-09T01:33:57.663Z,102388.16
2024-05-09T01:34:11.547Z,102392.59
2024-05-09T01:34:25.683Z,102391.69
2024-05-09T01:34:39.361Z,102396.09
2024-05-09T01:34:53.486Z,102389.03
2024-05-09T01:35:07.872Z,102395.25
2024-05-09T01:35:23.813Z,102390.78
2024-05-09T01:35:42.199Z,102396.09
2024-05-09T01:35:56.711Z,102397.88
2024-05-09T01:36:10.456Z,102387.28
2024-05-09T01:36:24.062Z,102398.81
2024-05-09T01:36:37.639Z,102394.38
2024-05-09T01:36:51.217Z,102385.56
2024-05-09T01:37:05.295Z,102395.28
2024-05-09T01:37:19.044Z,102386.47
2024-05-09T01:37:32.725Z,102382.94
2024-05-09T01:37:49.073Z,102390.91
2024-05-09T01:38:02.872Z,102394.41
2024-05-09T01:38:20.169Z,102390.03
2024-05-09T01:38:34.410Z,102388.28
2024-05-09T01:38:48.129Z,102388.28
2024-05-09T01:39:01.790Z,102383.00
2024-05-09T01:39:15.618Z,102389.22
2024-05-09T01:39:31.896Z,102389.22
2024-05-09T01:39:45.545Z,102391.88
2024-05-09T01:39:59.283Z,102387.47
2024-05-09T01:40:18.425Z,102384.81
2024-05-09T01:40:39.242Z,102388.41
2024-05-09T01:40:54.060Z,102383.97
2024-05-09T01:41:07.749Z,102391.94
2024-05-09T01:41:21.442Z,102383.97
2024-05-09T01:41:35.194Z,102390.13
2024-05-09T01:41:51.527Z,102391.94
2024-05-09T01:42:05.838Z,102385.78
2024-05-09T01:42:19.865Z,102392.84
2024-05-09T01:42:33.578Z,102391.09
2024-05-09T01:42:47.242Z,102384.09
2024-05-09T01:43:00.887Z,102392.03
2024-05-09T01:43:14.765Z,102392.06
2024-05-09T01:43:31.046Z,102389.41
2024-05-09T01:43:44.771Z,102391.19
2024-05-09T01:43:58.489Z,102392.06
2024-05-09T01:44:12.239Z,102396.50
2024-05-09T01:44:26.249Z,102399.19
2024-05-09T01:44:40.115Z,102391.22
2024-05-09T01:44:53.734Z,102394.81
2024-05-09T01:45:11.189Z,102394.81
2024-05-09T01:45:24.931Z,102394.84
2024-05-09T01:45:39.510Z,102394.00
2024-05-09T01:45:53.626Z,102399.31
2024-05-09T01:46:07.270Z,102395.75
2024-05-09T01:46:20.911Z,102393.16
2024-05-09T01:46:34.568Z,102394.94
2024-05-09T01:46:48.164Z,102401.13
2024-05-09T01:47:01.844Z,102397.59
2024-05-09T01:47:18.149Z,102398.50
2024-05-09T01:47:32.024Z,102401.16
2024-05-09T01:47:45.997Z,102395.00
2024-05-09T01:48:00.015Z,102397.66
2024-05-09T01:48:14.054Z,102400.31
2024-05-09T01:48:27.818Z,102402.06
2024-05-09T01:48:41.700Z,102401.19
2024-05-09T01:48:58.491Z,102395.03
2024-05-09T01:49:12.429Z,102406.50
2024-05-09T01:49:27.117Z,102401.28
2024-05-09T01:49:41.008Z,102402.16
2024-05-09T01:49:55.505Z,102403.03
2024-05-09T01:50:11.050Z,102405.69
2024-05-09T01:50:35.941Z,102401.31
2024-05-09T01:50:55.650Z,102403.09
2024-05-09T01:51:09.435Z,102405.75
2024-05-09T01:51:23.158Z,102406.59
2024-05-09T01:51:36.814Z,102408.44
2024-05-09T01:51:50.492Z,102403.13
2024-05-09T01:52:04.658Z,102409.28
2024-05-09T01:52:18.315Z,102403.13
2024-05-09T01:52:32.042Z,102402.31
2024-05-09T01:52:48.312Z,102395.22
2024-05-09T01:53:02.110Z,102400.50
2024-05-09T01:53:18.483Z,102402.31
2024-05-09T01:53:32.690Z,102396.16
2024-05-09T01:53:46.709Z,102400.50
2024-05-09T01:54:00.555Z,102397.00
2024-05-09T01:54:14.269Z,102404.97
2024-05-09T01:54:27.920Z,102400.50
2024-05-09T01:54:44.321Z,102404.97
2024-05-09T01:54:57.961Z,102403.16
2024-05-09T01:55:11.592Z,102400.56
2024-05-09T01:55:25.345Z,102404.09
2024-05-09T01:55:39.152Z,102398.78
2024-05-09T01:55:52.894Z,102400.56
2024-05-09T01:56:07.435Z,102405.84
2024-05-09T01:56:21.246Z,102402.34
2024-05-09T01:56:37.668Z,102412.09
2024-05-09T01:56:51.379Z,102402.34
2024-05-09T01:57:05.603Z,102406.78
2024-05-09T01:57:19.967Z,102406.78
2024-05-09T01:57:33.681Z,102403.28
2024-05-09T01:57:47.346Z,102405.06
2024-05-09T01:58:00.982Z,102404.16
2024-05-09T01:58:14.651Z,102403.31
2024-05-09T01:58:31.809Z,102402.44
2024-05-09T01:58:46.442Z,102406.00
2024-05-09T01:59:00.186Z,102401.59
2024-05-09T01:59:14.023Z,102405.13
2024-05-09T01:59:27.809Z,102410.44
2024-05-09T01:59:41.595Z,102413.13
2024-05-09T01:59:55.292Z,102403.44
2024-05-09T02:00:10.490Z,102407.88
2024-05-09T02:00:36.957Z,102406.09
2024-05-09T02:00:54.501Z,102409.66
2024-05-09T02:01:12.377Z,102408.78
2024-05-09T02:01:26.177Z,102407.94
2024-05-09T02:01:56.150Z,102410.56
2024-05-09T02:02:14.190Z,102409.72
2024-05-09T02:02:27.941Z,102412.38
2024-05-09T02:02:41.852Z,102415.91
2024-05-09T02:02:55.612Z,102410.63
2024-05-09T02:03:12.347Z,102415.91
2024-05-09T02:03:28.890Z,102414.19
2024-05-09T02:03:46.091Z,102417.75
2024-05-09T02:04:00.039Z,102410.72
2024-05-09T02:04:16.826Z,102410.72
2024-05-09T02:04:31.014Z,102414.22
2024-05-09T02:04:47.751Z,102414.25
2024-05-09T02:05:01.966Z,102416.88
2024-05-09T02:05:16.083Z,102416.88
2024-05-09T02:05:29.890Z,102416.00
2024-05-09T02:05:43.846Z,102410.72
2024-05-09T02:05:57.562Z,102410.72
2024-05-09T02:06:13.932Z,102416.00
2024-05-09T02:06:27.568Z,102415.16
2024-05-09T02:06:42.037Z,102414.22
2024-05-09T02:06:55.702Z,102408.06
2024-05-09T02:07:09.301Z,102411.56
2024-05-09T02:07:22.892Z,102406.31
2024-05-09T02:07:36.515Z,102409.84
2024-05-09T02:07:50.149Z,102400.97
2024-05-09T02:08:03.900Z,102406.31
2024-05-09T02:08:21.863Z,102406.28
2024-05-09T02:08:38.581Z,102404.47
2024-05-09T02:08:52.898Z,102407.13
2024-05-09T02:09:06.458Z,102404.47
2024-05-09T02:09:20.127Z,102412.44
2024-05-09T02:09:33.751Z,102400.97
2024-05-09T02:09:47.295Z,102409.78
2024-05-09T02:10:00.831Z,102407.13
2024-05-09T02:10:20.435Z,102407.13
2024-05-09T02:10:42.301Z,102406.28
2024-05-09T02:10:56.295Z,102403.63
2024-05-09T02:11:10.886Z,102406.28
2024-05-09T02:11:24.850Z,102403.66
2024-05-09T02:11:42.207Z,102409.84
2024-05-09T02:11:55.996Z,102407.19
2024-05-09T02:12:09.978Z,102411.59
2024-05-09T02:12:26.584Z,102410.72
2024-05-09T02:12:41.182Z,102408.97
2024-05-09T02:12:55.198Z,102408.09
2024-05-09T02:13:08.979Z,102414.38
2024-05-09T02:13:22.684Z,102409.91
2024-05-09T02:13:36.306Z,102412.53
2024-05-09T02:13:49.973Z,102411.72
2024-05-09T02:14:03.714Z,102416.09
2024-05-09T02:14:22.196Z,102416.09
2024-05-09T02:14:36.007Z,102409.06
2024-05-09T02:14:49.651Z,102415.22
2024-05-09T02:15:03.299Z,102412.56
2024-05-09T02:15:17.256Z,102413.53
2024-05-09T02:15:30.918Z,102412.66
2024-05-09T02:15:44.710Z,102414.38
2024-05-09T02:15:58.448Z,102410.84
2024-05-09T02:16:13.268Z,102412.66
2024-05-09T02:16:30.060Z,102407.34
2024-05-09T02:16:43.900Z,102410.00
2024-05-09T02:16:57.617Z,102410.88
2024-05-09T02:17:11.357Z,102416.19
2024-05-09T02:17:25.247Z,102413.53
2024-05-09T02:17:39.266Z,102411.75
2024-05-09T02:17:53.391Z,102409.16
2024-05-09T02:18:08.556Z,102415.31
2024-05-09T02:18:25.408Z,102414.47
2024-05-09T02:18:39.387Z,102416.19
2024-05-09T02:18:53.187Z,102414.47
2024-05-09T02:19:07.021Z,102413.53
2024-05-09T02:19:20.960Z,102414.47
2024-05-09T02:19:34.879Z,102415.31
2024-05-09T02:19:48.576Z,102409.16
2024-05-09T02:20:02.692Z,102412.72
2024-05-09T02:20:29.953Z,102410.91
2024-05-09T02:20:49.421Z,102413.63
2024-05-09T02:21:03.095Z,102406.59
2024-05-09T02:21:16.832Z,102409.22
2024-05-09T02:21:34.376Z,102414.53
2024-05-09T02:21:47.985Z,102408.38
2024-05-09T02:22:01.580Z,102418.97
2024-05-09T02:22:17.939Z,102404.91
2024-05-09T02:22:31.550Z,102408.41
2024-05-09T02:22:45.158Z,102407.50
2024-05-09T02:22:59.025Z,102411.06
2024-05-09T02:23:14.048Z,102411.06
2024-05-09T02:23:30.336Z,102409.34
2024-05-09T02:23:44.458Z,102409.34
2024-05-09T02:24:00.855Z,102402.28
2024-05-09T02:24:14.455Z,102414.63
2024-05-09T02:24:28.016Z,102409.34
2024-05-09T02:24:41.784Z,102404.06
2024-05-09T02:24:55.347Z,102411.97
2024-05-09T02:25:09.025Z,102401.41
2024-05-09T02:25:27.250Z,102404.06
2024-05-09T02:25:41.013Z,102405.84
2024-05-09T02:25:57.297Z,102405.84
2024-05-09T02:26:11.117Z,102410.22
2024-05-09T02:26:24.890Z,102405.84
2024-05-09T02:26:38.643Z,102404.94
2024-05-09T02:26:52.408Z,102407.56
2024-05-09T02:27:06.486Z,102409.38
2024-05-09T02:27:20.121Z,102404.09
2024-05-09T02:27:34.162Z,102409.41
2024-05-09T02:27:50.440Z,102409.41
2024-05-09T02:28:04.431Z,102407.69
2024-05-09T02:28:18.083Z,102398.88
2024-05-09T02:28:31.825Z,102407.69
2024-05-09T02:28:45.478Z,102401.53
2024-05-09T02:29:00.238Z,102408.56
2024-05-09T02:29:13.957Z,102402.41
2024-05-09T02:29:27.898Z,102402.41
2024-05-09T02:29:41.703Z,102403.34
2024-05-09T02:29:58.074Z,102397.16
2024-05-09T02:30:18.915Z,102403.34
2024-05-09T02:30:41.741Z,102398.91
2024-05-09T02:30:56.211Z,102406.84
2024-05-09T02:31:13.644Z,102411.28
2024-05-09T02:31:27.260Z,102407.75
2024-05-09T02:31:43.647Z,102403.38
2024-05-09T02:31:57.398Z,102411.31
2024-05-09T02:32:11.536Z,102406.88
2024-05-09T02:32:25.356Z,102406.03
2024-05-09T02:32:39.286Z,102399.00
2024-05-09T02:32:53.123Z,102404.31
2024-05-09T02:33:07.500Z,102399.91
2024-05-09T02:33:21.847Z,102402.56
2024-05-09T02:33:35.915Z,102405.19
2024-05-09T02:33:49.986Z,102400.81
2024-05-09T02:34:06.663Z,102407.88
2024-05-09T02:34:20.458Z,102405.22
2024-05-09T02:34:34.171Z,102408.78
2024-05-09T02:34:48.372Z,102408.81
2024-05-09T02:35:02.239Z,102404.38
2024-05-09T02:35:16.161Z,102405.31
2024-05-09T02:35:29.880Z,102400.91
2024-05-09T02:35:44.376Z,102408.81
2024-05-09T02:35:58.150Z,102403.53
2024-05-09T02:36:12.886Z,102399.19
2024-05-09T02:36:26.551Z,102407.94
2024-05-09T02:36:40.388Z,102400.91
2024-05-09T02:36:57.487Z,102407.13
2024-05-09T02:37:11.155Z,102400.06
2024-05-09T02:37:24.800Z,102401.84
2024-05-09T02:37:38.349Z,102402.72
2024-05-09T02:37:52.263Z,102406.28
2024-05-09T02:38:06.197Z,102401.00
2024-05-09T02:38:19.884Z,102401.84
2024-05-09T02:38:36.709Z,102401.00
2024-05-09T02:38:50.415Z,102401.00
2024-05-09T02:39:04.069Z,102400.13
2024-05-09T02:39:17.678Z,102401.00
2024-05-09T02:39:31.365Z,102399.25
2024-05-09T02:39:45.030Z,102399.25
2024-05-09T02:39:58.670Z,102398.38
2024-05-09T02:40:14.899Z,102397.50
2024-05-09T02:40:37.202Z,102404.53
2024-05-09T02:40:52.757Z,102401.88
2024-05-09T02:41:06.677Z,102403.66
2024-05-09T02:41:20.454Z,102391.28
2024-05-09T02:41:34.115Z,102396.59
2024-05-09T02:41:47.716Z,102397.50
2024-05-09T02:42:04.020Z,102396.66
2024-05-09T02:42:17.628Z,102398.38
2024-05-09T02:42:31.788Z,102396.59
2024-05-09T02:42:45.423Z,102394.88
2024-05-09T02:42:59.109Z,102395.75
2024-05-09T02:43:13.308Z,102391.34
2024-05-09T02:43:27.048Z,102399.31
2024-05-09T02:43:40.718Z,102397.50
2024-05-09T02:43:54.451Z,102391.34
2024-05-09T02:44:08.174Z,102397.50
2024-05-09T02:44:21.978Z,102394.91
2024-05-09T02:44:35.670Z,102390.47
2024-05-09T02:44:49.352Z,102396.69
2024-05-09T02:45:03.035Z,102396.72
2024-05-09T02:45:16.841Z,102394.03
2024-05-09T02:45:30.454Z,102391.44
2024-05-09T02:45:44.021Z,102397.56
2024-05-09T02:45:58.095Z,102398.47
2024-05-09T02:46:15.213Z,102393.19
2024-05-09T02:46:28.851Z,102400.22
2024-05-09T02:46:42.478Z,102399.34
2024-05-09T02:46:56.215Z,102397.59
2024-05-09T02:47:10.048Z,102391.44
2024-05-09T02:47:24.028Z,102391.44
2024-05-09T02:47:38.030Z,102395.88
2024-05-09T02:47:51.968Z,102394.09
2024-05-09T02:48:06.961Z,102397.66
2024-05-09T02:48:21.023Z,102396.75
2024-05-09T02:48:34.972Z,102393.25
2024-05-09T02:48:48.815Z,102396.81
2024-05-09T02:49:02.924Z,102398.53
2024-05-09T02:49:19.538Z,102399.41
2024-05-09T02:49:33.354Z,102401.25
2024-05-09T02:49:47.528Z,102400.38
2024-05-09T02:50:01.196Z,102400.38